createdAt,value
2023-02-28T00:00:29.826Z,58.00
2023-02-28T00:01:16.796Z,58.00
2023-02-28T00:01:57.077Z,59.00
2023-02-28T00:03:26.838Z,62.00
2023-02-28T00:04:30.535Z,63.33
2023-02-28T00:05:51.817Z,73.00
2023-02-28T00:06:33.555Z,78.33
2023-02-28T00:07:12.775Z,84.33
2023-02-28T00:07:56.032Z,82.67
2023-02-28T00:08:38.757Z,81.00
2023-02-28T00:09:20.800Z,81.00
2023-02-28T00:10:13.940Z,81.00
2023-02-28T00:10:55.847Z,80.00
2023-02-28T00:11:34.866Z,79.00
2023-02-28T00:12:15.166Z,79.00
2023-02-28T00:13:03.523Z,77.00
2023-02-28T00:13:47.772Z,74.00
2023-02-28T00:14:26.763Z,68.33
2023-02-28T00:15:13.845Z,62.67
2023-02-28T00:16:05.416Z,48.33
2023-02-28T00:16:54.612Z,40.33
2023-02-28T00:17:35.582Z,37.33
2023-02-28T00:19:27.916Z,41.33
2023-02-28T00:20:12.962Z,44.67
2023-02-28T00:21:01.844Z,46.67
2023-02-28T00:21:44.855Z,47.33
2023-02-28T00:22:31.661Z,48.00
2023-02-28T00:23:35.234Z,48.33
2023-02-28T00:24:17.907Z,47.00
2023-02-28T00:25:37.078Z,51.33
2023-02-28T00:26:56.151Z,63.33
2023-02-28T00:27:35.672Z,66.67
2023-02-28T00:28:39.173Z,69.00
2023-02-28T00:30:38.673Z,69.00
2023-02-28T00:32:41.699Z,70.33
2023-02-28T00:34:02.439Z,72.67
2023-02-28T00:34:44.188Z,75.33
2023-02-28T00:39:25.355Z,74.33
2023-02-28T00:40:10.242Z,70.33
2023-02-28T00:41:52.678Z,65.33
2023-02-28T00:43:12.326Z,56.67
2023-02-28T00:43:54.532Z,56.00
2023-02-28T00:44:36.833Z,51.33
2023-02-28T00:45:16.676Z,49.00
2023-02-28T00:45:55.880Z,47.67
2023-02-28T00:47:00.241Z,47.00
2023-02-28T00:47:42.835Z,47.33
2023-02-28T00:48:24.207Z,45.00
2023-02-28T00:49:16.625Z,45.00
2023-02-28T00:50:04.092Z,46.00
2023-02-28T00:50:50.932Z,47.00
2023-02-28T00:52:11.837Z,47.33
2023-02-28T00:52:50.794Z,48.00
2023-02-28T00:53:33.921Z,48.33
2023-02-28T00:54:18.100Z,50.00
2023-02-28T00:56:28.859Z,51.00
2023-02-28T00:57:32.276Z,51.00
2023-02-28T00:58:21.688Z,51.00
2023-02-28T00:59:03.910Z,51.00
2023-02-28T00:59:45.869Z,51.33
2023-02-28T01:00:50.141Z,52.00
2023-02-28T01:03:11.744Z,63.00
2023-02-28T01:03:51.834Z,62.00
2023-02-28T01:05:09.868Z,59.33
2023-02-28T01:05:48.818Z,56.67
2023-02-28T01:06:29.346Z,50.67
2023-02-28T01:07:33.287Z,48.00
2023-02-28T01:10:13.793Z,45.00
2023-02-28T01:11:36.688Z,45.00
2023-02-28T01:12:57.831Z,44.33
2023-02-28T01:13:49.615Z,44.00
2023-02-28T01:14:33.445Z,45.00
2023-02-28T01:16:00.640Z,45.00
2023-02-28T01:16:42.079Z,45.00
2023-02-28T01:18:02.906Z,45.00
2023-02-28T01:18:45.263Z,45.33
2023-02-28T01:19:32.675Z,47.00
2023-02-28T01:20:14.953Z,47.00
2023-02-28T01:21:04.582Z,47.00
2023-02-28T01:21:43.854Z,48.67
2023-02-28T01:22:36.139Z,49.00
2023-02-28T01:23:20.631Z,49.00
2023-02-28T01:23:59.834Z,49.00
2023-02-28T01:24:41.794Z,49.00
2023-02-28T01:25:21.982Z,49.33
2023-02-28T01:27:21.305Z,50.00
2023-02-28T01:28:44.694Z,51.00
2023-02-28T01:30:27.221Z,46.67
2023-02-28T01:32:15.697Z,45.33
2023-02-28T01:34:20.264Z,46.00
2023-02-28T01:35:42.752Z,44.67
2023-02-28T01:36:24.224Z,44.00
2023-02-28T01:37:16.682Z,43.33
2023-02-28T01:38:09.567Z,43.00
2023-02-28T01:39:36.945Z,50.33
2023-02-28T01:40:19.203Z,52.00
2023-02-28T01:40:59.063Z,56.00
2023-02-28T01:42:02.374Z,58.33
2023-02-28T01:44:06.009Z,68.67
2023-02-28T01:45:30.524Z,67.33
2023-02-28T01:46:11.946Z,66.33
2023-02-28T01:46:50.431Z,69.33
2023-02-28T01:47:57.373Z,69.33
2023-02-28T01:49:18.878Z,71.67
2023-02-28T01:50:26.116Z,75.33
2023-02-28T01:51:55.785Z,83.33
2023-02-28T01:52:58.965Z,82.00
2023-02-28T01:53:48.818Z,78.67
2023-02-28T01:55:54.331Z,76.00
2023-02-28T01:56:36.524Z,75.00
2023-02-28T01:57:25.205Z,75.00
2023-02-28T01:58:10.096Z,73.67
2023-02-28T01:58:54.663Z,73.67
2023-02-28T01:59:52.207Z,73.00
2023-02-28T02:00:47.663Z,73.00
2023-02-28T02:01:32.437Z,74.67
2023-02-28T02:02:12.108Z,80.00
2023-02-28T02:02:57.076Z,81.67
2023-02-28T02:03:37.470Z,81.33
2023-02-28T02:04:41.416Z,85.33
2023-02-28T02:05:35.657Z,86.00
2023-02-28T02:09:05.405Z,89.67
2023-02-28T02:09:47.956Z,91.00
2023-02-28T02:10:40.811Z,90.33
2023-02-28T02:11:23.852Z,90.00
2023-02-28T02:12:27.791Z,89.00
2023-02-28T02:13:35.464Z,83.67
2023-02-28T02:14:34.201Z,81.33
2023-02-28T02:15:13.642Z,82.00
2023-02-28T02:16:12.956Z,82.00
2023-02-28T02:17:26.385Z,82.00
2023-02-28T02:18:19.723Z,78.33
2023-02-28T02:19:42.391Z,74.00
2023-02-28T02:22:17.905Z,63.67
2023-02-28T02:23:28.770Z,64.33
2023-02-28T02:24:34.095Z,66.00
2023-02-28T02:25:49.573Z,66.00
2023-02-28T02:26:53.313Z,66.33
2023-02-28T02:29:30.237Z,65.67
2023-02-28T02:30:29.450Z,65.00
2023-02-28T02:31:18.781Z,67.67
2023-02-28T02:32:48.424Z,74.00
2023-02-28T02:34:06.495Z,72.67
2023-02-28T02:35:23.760Z,68.33
2023-02-28T02:36:33.429Z,67.00
2023-02-28T02:37:38.521Z,67.00
2023-02-28T02:38:21.430Z,67.67
2023-02-28T02:39:03.781Z,69.00
2023-02-28T02:39:43.811Z,69.00
2023-02-28T02:40:59.714Z,69.00
2023-02-28T02:41:39.500Z,69.00
2023-02-28T02:42:33.003Z,70.00
2023-02-28T02:44:29.657Z,71.00
2023-02-28T02:47:18.674Z,76.00
2023-02-28T02:51:58.899Z,1.67
2023-02-28T02:52:49.432Z,76.00
2023-02-28T02:55:29.458Z,96.33
2023-02-28T02:56:10.983Z,101.00
2023-02-28T02:57:17.518Z,100.67
2023-02-28T02:57:56.497Z,98.67
2023-02-28T02:58:43.339Z,92.33
2023-02-28T02:59:23.042Z,107.00
2023-02-28T03:00:12.159Z,100.67
2023-02-28T03:00:56.971Z,103.33
2023-02-28T03:01:41.238Z,102.67
2023-02-28T03:02:34.825Z,100.00
2023-02-28T03:03:18.809Z,100.67
2023-02-28T03:03:58.440Z,99.67
2023-02-28T03:04:46.553Z,99.00
2023-02-28T03:05:43.074Z,98.00
2023-02-28T03:06:29.782Z,101.33
2023-02-28T03:07:09.014Z,100.00
2023-02-28T03:07:47.828Z,101.00
2023-02-28T03:08:36.595Z,103.33
2023-02-28T03:11:10.696Z,103.67
2023-02-28T03:11:59.700Z,101.33
2023-02-28T03:12:39.831Z,103.00
2023-02-28T03:13:38.413Z,102.67
2023-02-28T03:14:27.412Z,103.00
2023-02-28T03:15:37.188Z,103.00
2023-02-28T03:17:13.205Z,102.00
2023-02-28T03:18:39.635Z,101.33
2023-02-28T03:19:42.249Z,101.67
2023-02-28T03:21:18.848Z,101.00
2023-02-28T03:23:14.420Z,101.00
2023-02-28T03:24:41.889Z,101.00
2023-02-28T03:25:57.363Z,101.67
2023-02-28T03:26:36.583Z,101.00
2023-02-28T03:27:40.347Z,102.00
2023-02-28T03:28:23.850Z,102.00
2023-02-28T03:29:29.365Z,101.67
2023-02-28T03:30:12.097Z,101.00
2023-02-28T03:31:29.879Z,101.00
2023-02-28T03:32:48.103Z,102.00
2023-02-28T03:34:06.782Z,103.00
2023-02-28T03:37:05.696Z,101.00
2023-02-28T03:37:51.392Z,101.00
2023-02-28T03:39:33.433Z,102.00
2023-02-28T03:40:21.316Z,102.00
2023-02-28T03:41:57.426Z,104.33
2023-02-28T03:42:36.545Z,107.67
2023-02-28T03:43:28.815Z,111.00
2023-02-28T03:44:58.771Z,110.67
2023-02-28T03:46:26.880Z,116.00
2023-02-28T03:48:16.422Z,117.00
2023-02-28T03:50:12.652Z,110.33
2023-02-28T03:51:57.127Z,115.67
2023-02-28T03:52:45.687Z,123.00
2023-02-28T03:53:45.760Z,121.00
2023-02-28T03:56:10.453Z,118.00
2023-02-28T03:56:49.616Z,117.33
2023-02-28T03:57:44.326Z,117.67
2023-02-28T03:59:17.669Z,123.67
2023-02-28T04:00:16.061Z,122.00
2023-02-28T04:00:58.542Z,123.00
2023-02-28T04:01:45.273Z,133.00
2023-02-28T04:02:28.812Z,124.00
2023-02-28T04:03:09.886Z,107.67
2023-02-28T04:03:48.621Z,94.33
2023-02-28T04:04:28.013Z,87.67
2023-02-28T04:05:33.414Z,85.67
2023-02-28T04:06:12.705Z,90.33
2023-02-28T04:06:53.743Z,89.33
2023-02-28T04:07:34.185Z,93.00
2023-02-28T04:08:54.531Z,96.67
2023-02-28T04:09:33.991Z,95.00
2023-02-28T04:10:18.925Z,89.67
2023-02-28T04:12:18.854Z,84.00
2023-02-28T04:14:56.825Z,112.00
2023-02-28T04:15:35.646Z,120.00
2023-02-28T04:16:40.973Z,123.00
2023-02-28T04:19:40.940Z,111.33
2023-02-28T04:20:20.503Z,110.67
2023-02-28T04:21:03.375Z,111.00
2023-02-28T04:21:43.596Z,110.67
2023-02-28T04:22:48.870Z,114.67
2023-02-28T04:24:05.620Z,105.00
2023-02-28T04:24:47.880Z,104.67
2023-02-28T04:27:40.472Z,108.67
2023-02-28T04:28:29.752Z,106.33
2023-02-28T04:29:12.564Z,98.67
2023-02-28T04:29:57.742Z,90.67
2023-02-28T04:30:39.291Z,91.67
2023-02-28T04:31:18.904Z,115.33
2023-02-28T04:31:59.414Z,125.33
2023-02-28T04:32:38.611Z,117.33
2023-02-28T04:33:18.214Z,101.33
2023-02-28T04:34:05.752Z,89.00
2023-02-28T04:37:13.437Z,92.00
2023-02-28T04:37:53.665Z,108.67
2023-02-28T04:38:37.934Z,149.00
2023-02-28T04:39:59.854Z,131.00
2023-02-28T04:40:41.926Z,125.33
2023-02-28T04:41:25.266Z,122.33
2023-02-28T04:42:06.229Z,110.67
2023-02-28T04:42:46.214Z,108.00
2023-02-28T04:43:28.436Z,105.33
2023-02-28T04:44:08.218Z,105.67
2023-02-28T04:44:48.660Z,106.00
2023-02-28T04:45:36.358Z,107.00
2023-02-28T04:46:19.535Z,124.67
2023-02-28T04:46:58.855Z,136.00
2023-02-28T04:47:38.308Z,131.00
2023-02-28T04:48:17.503Z,127.00
2023-02-28T04:49:00.192Z,117.33
2023-02-28T04:49:49.772Z,107.67
2023-02-28T04:50:53.521Z,106.00
2023-02-28T04:52:52.469Z,199.33
2023-02-28T04:53:32.422Z,201.33
2023-02-28T04:54:11.853Z,147.67
2023-02-28T04:55:31.825Z,102.33
2023-02-28T04:56:17.598Z,99.67
2023-02-28T04:56:57.090Z,103.67
2023-02-28T04:57:38.195Z,107.00
2023-02-28T04:58:17.972Z,108.67
2023-02-28T04:58:57.799Z,101.33
2023-02-28T04:59:40.841Z,87.67
2023-02-28T05:00:28.759Z,79.67
2023-02-28T05:01:55.064Z,75.67
2023-02-28T05:02:36.469Z,69.00
2023-02-28T05:03:17.851Z,67.33
2023-02-28T05:03:59.685Z,66.33
2023-02-28T05:04:38.524Z,68.00
2023-02-28T05:05:20.730Z,67.67
2023-02-28T05:06:25.406Z,76.33
2023-02-28T05:07:06.156Z,80.67
2023-02-28T05:08:10.869Z,84.00
2023-02-28T05:08:49.621Z,83.00
2023-02-28T05:09:30.532Z,80.00
2023-02-28T05:10:18.703Z,79.00
2023-02-28T05:12:30.188Z,106.00
2023-02-28T05:13:13.685Z,104.33
2023-02-28T05:14:43.739Z,103.33
2023-02-28T05:15:22.939Z,101.67
2023-02-28T05:16:40.676Z,94.67
2023-02-28T05:17:28.951Z,92.00
2023-02-28T05:18:46.642Z,84.67
2023-02-28T05:19:35.040Z,80.33
2023-02-28T05:21:14.650Z,118.00
2023-02-28T05:21:56.697Z,117.00
2023-02-28T05:24:36.937Z,105.67
2023-02-28T05:25:16.628Z,103.00
2023-02-28T05:26:00.396Z,99.00
2023-02-28T05:26:50.459Z,98.00
2023-02-28T05:27:30.621Z,95.33
2023-02-28T05:28:09.924Z,86.33
2023-02-28T05:29:13.361Z,83.67
2023-02-28T05:30:38.630Z,83.00
2023-02-28T05:31:18.491Z,86.67
2023-02-28T05:31:57.963Z,87.33
2023-02-28T05:32:44.059Z,91.33
2023-02-28T05:33:32.771Z,98.00
2023-02-28T05:34:13.910Z,106.00
2023-02-28T05:34:54.035Z,112.33
2023-02-28T05:35:40.460Z,122.67
2023-02-28T05:36:44.734Z,130.67
2023-02-28T05:37:27.485Z,123.33
2023-02-28T05:39:27.982Z,117.00
2023-02-28T05:40:45.960Z,139.00
2023-02-28T05:42:05.698Z,191.33
2023-02-28T05:43:11.380Z,200.00
2023-02-28T05:43:50.694Z,174.33
2023-02-28T05:45:24.666Z,137.33
2023-02-28T05:46:08.291Z,146.67
2023-02-28T05:46:47.677Z,168.00
2023-02-28T05:47:35.409Z,176.67
2023-02-28T05:48:24.005Z,174.67
2023-02-28T05:49:44.998Z,186.00
2023-02-28T05:50:48.633Z,174.00
2023-02-28T05:52:18.641Z,136.00
2023-02-28T05:52:58.457Z,140.00
2023-02-28T05:53:40.625Z,160.33
2023-02-28T05:55:58.696Z,128.00
2023-02-28T05:57:24.388Z,119.33
2023-02-28T05:58:41.593Z,128.67
2023-02-28T05:59:21.021Z,132.67
2023-02-28T06:00:54.877Z,114.33
2023-02-28T06:02:13.665Z,117.67
2023-02-28T06:02:57.406Z,113.67
2023-02-28T06:05:18.308Z,95.00
2023-02-28T06:06:48.763Z,109.33
2023-02-28T06:07:30.963Z,116.67
2023-02-28T06:09:35.799Z,132.00
2023-02-28T06:10:15.566Z,160.33
2023-02-28T06:12:08.472Z,184.67
2023-02-28T06:12:52.031Z,187.33
2023-02-28T06:13:31.629Z,195.00
2023-02-28T06:14:20.349Z,194.00
2023-02-28T06:15:09.575Z,195.00
2023-02-28T06:15:52.684Z,192.67
2023-02-28T06:16:35.794Z,178.67
2023-02-28T06:17:27.906Z,183.00
2023-02-28T06:18:07.077Z,176.67
2023-02-28T06:18:48.978Z,177.33
2023-02-28T06:19:31.609Z,184.67
2023-02-28T06:20:16.455Z,196.33
2023-02-28T06:21:20.268Z,195.33
2023-02-28T06:22:03.589Z,218.33
2023-02-28T06:22:44.040Z,236.67
2023-02-28T06:23:23.678Z,253.67
2023-02-28T06:24:04.680Z,268.00
2023-02-28T06:25:08.017Z,272.67
2023-02-28T06:25:48.838Z,229.33
2023-02-28T06:26:31.798Z,218.67
2023-02-28T06:27:19.107Z,179.33
2023-02-28T06:27:59.205Z,151.33
2023-02-28T06:28:39.115Z,150.33
2023-02-28T06:29:19.424Z,204.67
2023-02-28T06:30:00.583Z,289.33
2023-02-28T06:32:30.673Z,2.33
2023-02-28T06:33:09.916Z,77.67
2023-02-28T06:34:03.600Z,83.33
2023-02-28T06:34:55.408Z,93.00
2023-02-28T06:35:35.561Z,97.67
2023-02-28T06:36:17.841Z,104.33
2023-02-28T06:36:58.146Z,106.67
2023-02-28T06:38:27.330Z,96.00
2023-02-28T06:39:06.196Z,98.00
2023-02-28T06:39:46.618Z,101.00
2023-02-28T06:41:05.593Z,102.00
2023-02-28T06:41:56.013Z,102.00
2023-02-28T06:42:36.328Z,100.00
2023-02-28T06:43:16.780Z,103.00
2023-02-28T06:43:58.199Z,101.00
2023-02-28T06:44:46.252Z,101.67
2023-02-28T06:45:27.263Z,96.33
2023-02-28T06:46:22.536Z,94.67
2023-02-28T06:47:07.457Z,97.00
2023-02-28T06:48:01.498Z,109.00
2023-02-28T06:48:49.588Z,104.33
2023-02-28T06:50:13.728Z,99.33
2023-02-28T06:51:43.379Z,105.33
2023-02-28T06:52:25.815Z,102.00
2023-02-28T06:53:07.701Z,102.67
2023-02-28T06:53:46.266Z,103.00
2023-02-28T06:54:32.837Z,102.33
2023-02-28T06:55:16.178Z,102.00
2023-02-28T06:56:09.876Z,102.33
2023-02-28T06:56:52.352Z,101.33
2023-02-28T06:57:35.472Z,102.33
2023-02-28T06:58:22.532Z,105.33
2023-02-28T06:59:04.759Z,103.67
2023-02-28T07:00:13.181Z,102.00
2023-02-28T07:01:34.627Z,102.00
2023-02-28T07:02:15.837Z,102.00
2023-02-28T07:02:56.238Z,102.00
2023-02-28T07:03:43.428Z,102.33
2023-02-28T07:04:24.519Z,101.00
2023-02-28T07:06:06.663Z,102.00
2023-02-28T07:08:05.620Z,104.00
2023-02-28T07:10:25.825Z,102.67
2023-02-28T07:11:29.910Z,104.00
2023-02-28T07:13:07.758Z,104.67
2023-02-28T07:13:48.631Z,98.00
2023-02-28T07:14:38.241Z,94.00
2023-02-28T07:15:25.489Z,97.00
2023-02-28T07:16:08.932Z,96.00
2023-02-28T07:17:38.121Z,94.00
2023-02-28T07:18:20.552Z,94.67
2023-02-28T07:20:02.683Z,116.67
2023-02-28T07:21:20.728Z,111.33
2023-02-28T07:22:00.834Z,103.67
2023-02-28T07:22:43.641Z,97.67
2023-02-28T07:23:23.884Z,94.67
2023-02-28T07:24:04.336Z,80.33
2023-02-28T07:24:44.143Z,81.67
2023-02-28T07:26:26.528Z,77.00
2023-02-28T07:27:05.170Z,75.67
2023-02-28T07:27:45.936Z,79.33
2023-02-28T07:30:08.785Z,132.00
2023-02-28T07:31:36.778Z,126.67
2023-02-28T07:32:40.495Z,116.00
2023-02-28T07:35:02.282Z,97.00
2023-02-28T07:36:21.245Z,93.00
2023-02-28T07:37:01.153Z,93.67
2023-02-28T07:37:48.659Z,95.00
2023-02-28T07:38:30.653Z,115.33
2023-02-28T07:39:11.322Z,125.67
2023-02-28T07:39:58.437Z,131.67
2023-02-28T07:40:37.203Z,130.33
2023-02-28T07:41:18.195Z,134.67
2023-02-28T07:41:57.897Z,141.00
2023-02-28T07:42:47.407Z,145.67
2023-02-28T07:43:36.813Z,140.67
2023-02-28T07:44:25.633Z,136.67
2023-02-28T07:45:12.811Z,146.67
2023-02-28T07:45:51.760Z,137.33
2023-02-28T07:46:40.607Z,135.67
2023-02-28T07:47:33.539Z,135.67
2023-02-28T07:48:14.575Z,135.67
2023-02-28T07:48:55.348Z,136.00
2023-02-28T07:49:39.459Z,138.00
2023-02-28T07:50:33.079Z,138.00
2023-02-28T07:53:52.557Z,106.33
2023-02-28T07:55:09.042Z,107.67
2023-02-28T07:56:24.652Z,111.00
2023-02-28T07:57:30.975Z,108.67
2023-02-28T07:58:37.738Z,107.33
2023-02-28T08:01:51.608Z,112.67
2023-02-28T08:03:59.145Z,134.33
2023-02-28T08:05:41.419Z,133.33
2023-02-28T08:06:25.774Z,129.00
2023-02-28T08:07:36.387Z,128.67
2023-02-28T08:08:40.319Z,126.00
2023-02-28T08:09:44.954Z,124.00
2023-02-28T08:10:48.329Z,127.00
2023-02-28T08:11:40.311Z,173.33
2023-02-28T08:12:21.384Z,190.33
2023-02-28T08:13:02.400Z,200.67
2023-02-28T08:13:42.230Z,196.67
2023-02-28T08:14:21.348Z,164.67
2023-02-28T08:15:13.683Z,159.67
2023-02-28T08:15:56.123Z,157.33
2023-02-28T08:17:37.849Z,135.33
2023-02-28T08:18:18.161Z,112.33
2023-02-28T08:19:22.389Z,107.33
2023-02-28T08:20:43.324Z,85.00
2023-02-28T08:21:31.046Z,100.00
2023-02-28T08:22:14.514Z,91.00
2023-02-28T08:22:55.017Z,86.67
2023-02-28T08:23:35.176Z,91.33
2023-02-28T08:25:11.940Z,94.67
2023-02-28T08:26:00.636Z,101.00
2023-02-28T08:26:49.953Z,121.33
2023-02-28T08:27:30.847Z,124.67
2023-02-28T08:28:26.025Z,119.00
2023-02-28T08:29:31.755Z,114.67
2023-02-28T08:30:10.443Z,121.67
2023-02-28T08:30:58.525Z,125.00
2023-02-28T08:31:51.654Z,124.00
2023-02-28T08:32:31.133Z,112.33
2023-02-28T08:33:14.677Z,114.00
2023-02-28T08:34:12.369Z,113.33
2023-02-28T08:35:18.259Z,105.67
2023-02-28T08:37:34.817Z,96.67
2023-02-28T08:38:34.444Z,100.67
2023-02-28T08:40:37.379Z,102.00
2023-02-28T08:41:21.807Z,96.00
2023-02-28T08:43:35.427Z,85.67
2023-02-28T08:44:39.482Z,85.00
2023-02-28T08:46:09.285Z,83.67
2023-02-28T08:47:03.584Z,81.00
2023-02-28T08:47:43.776Z,83.67
2023-02-28T08:49:57.011Z,97.33
2023-02-28T08:51:09.970Z,97.00
2023-02-28T08:52:05.489Z,92.67
2023-02-28T08:55:31.809Z,114.00
2023-02-28T08:57:27.507Z,106.33
2023-02-28T08:58:14.629Z,107.67
2023-02-28T08:59:18.170Z,110.00
2023-02-28T09:01:30.004Z,109.00
2023-02-28T09:02:22.432Z,105.33
2023-02-28T09:03:02.823Z,88.67
2023-02-28T09:03:47.160Z,85.67
2023-02-28T09:04:32.119Z,87.33
2023-02-28T09:05:36.351Z,92.33
2023-02-28T09:08:13.220Z,97.67
2023-02-28T09:09:07.822Z,115.00
2023-02-28T09:09:56.318Z,115.33
2023-02-28T09:10:48.550Z,114.00
2023-02-28T09:13:08.851Z,100.00
2023-02-28T09:14:13.184Z,95.33
2023-02-28T09:15:51.936Z,88.00
2023-02-28T09:16:34.495Z,80.67
2023-02-28T09:17:38.450Z,75.67
2023-02-28T09:19:36.286Z,78.67
2023-02-28T09:20:29.712Z,77.67
2023-02-28T09:22:19.356Z,76.67
2023-02-28T09:23:05.603Z,66.00
2023-02-28T09:23:44.936Z,61.33
2023-02-28T09:25:05.826Z,64.67
2023-02-28T09:26:03.518Z,66.33
2023-02-28T09:26:56.434Z,70.00
2023-02-28T09:28:01.005Z,80.00
2023-02-28T09:29:40.072Z,90.00
2023-02-28T09:31:46.887Z,101.33
2023-02-28T09:33:32.016Z,152.67
2023-02-28T09:34:15.605Z,153.67
2023-02-28T09:34:58.509Z,141.67
2023-02-28T09:35:51.492Z,127.33
2023-02-28T09:36:45.076Z,129.00
2023-02-28T09:39:00.663Z,166.67
2023-02-28T09:43:29.959Z,119.00
2023-02-28T09:47:32.517Z,168.67
2023-02-28T09:48:22.346Z,157.67
2023-02-28T09:49:30.239Z,125.33
2023-02-28T09:52:20.571Z,91.67
2023-02-28T09:53:53.390Z,97.00
2023-02-28T09:54:36.281Z,98.00
2023-02-28T09:55:47.280Z,105.67
2023-02-28T10:00:49.652Z,106.33
2023-02-28T10:01:56.896Z,102.67
2023-02-28T10:03:34.109Z,97.33
2023-02-28T10:04:41.995Z,101.00
2023-02-28T10:05:38.581Z,95.00
2023-02-28T10:06:31.896Z,89.67
2023-02-28T10:08:01.321Z,96.33
2023-02-28T10:08:52.594Z,96.00
2023-02-28T10:09:37.314Z,96.00
2023-02-28T10:10:27.804Z,96.33
2023-02-28T10:11:34.555Z,94.00
2023-02-28T10:13:43.778Z,123.33
2023-02-28T10:14:40.309Z,138.00
2023-02-28T10:15:36.376Z,139.67
2023-02-28T10:16:42.385Z,134.67
2023-02-28T10:17:55.512Z,153.00
2023-02-28T10:18:47.099Z,154.00
2023-02-28T10:19:46.859Z,144.00
2023-02-28T10:23:11.288Z,8.33
2023-02-28T10:24:45.689Z,87.00
2023-02-28T10:25:54.359Z,94.33
2023-02-28T10:26:38.771Z,104.33
2023-02-28T10:28:10.805Z,102.67
2023-02-28T10:28:50.520Z,142.33
2023-02-28T10:30:47.525Z,98.00
2023-02-28T10:32:00.466Z,102.67
2023-02-28T10:38:48.311Z,83.33
2023-02-28T10:42:41.383Z,149.67
2023-02-28T10:43:29.918Z,95.67
2023-02-28T10:44:23.489Z,105.33
2023-02-28T10:45:32.049Z,99.67
2023-02-28T10:46:27.463Z,198.00
2023-02-28T10:48:47.033Z,57.00
2023-02-28T10:49:39.479Z,138.00
2023-02-28T10:50:20.589Z,125.00
2023-02-28T10:53:27.672Z,110.67
2023-02-28T10:54:41.825Z,111.00
2023-02-28T10:55:52.333Z,89.67
2023-02-28T10:56:39.577Z,85.67
2023-02-28T10:57:29.741Z,116.67
2023-02-28T10:58:27.532Z,164.00
2023-02-28T10:59:09.435Z,73.67
2023-02-28T10:59:58.238Z,95.33
2023-02-28T11:00:55.154Z,98.00
2023-02-28T11:01:36.280Z,93.67
2023-02-28T11:02:38.511Z,73.33
2023-02-28T11:04:50.931Z,114.00
2023-02-28T11:05:35.483Z,119.67
2023-02-28T11:06:17.467Z,132.67
2023-02-28T11:07:24.459Z,97.00
2023-02-28T11:08:22.268Z,74.00
2023-02-28T11:09:23.458Z,91.67
2023-02-28T11:10:14.122Z,82.33
2023-02-28T11:11:02.077Z,183.67
2023-02-28T11:11:54.194Z,119.67
2023-02-28T11:12:52.246Z,205.33
2023-02-28T11:14:26.985Z,246.33
2023-02-28T11:15:24.904Z,162.33
2023-02-28T11:17:24.724Z,119.67
2023-02-28T11:18:06.307Z,213.33
2023-02-28T11:19:19.025Z,210.00
2023-02-28T11:22:32.344Z,63.67
2023-02-28T11:23:26.761Z,196.67
2023-02-28T11:24:26.039Z,200.67
2023-02-28T11:26:43.327Z,73.33
2023-02-28T11:27:50.646Z,216.67
2023-02-28T11:29:07.826Z,85.67
2023-02-28T11:30:43.139Z,88.00
2023-02-28T11:33:47.304Z,51.67
2023-02-28T11:34:35.005Z,46.33
2023-02-28T11:36:21.314Z,182.00
2023-02-28T11:37:06.155Z,279.00
2023-02-28T11:38:20.909Z,143.00
2023-02-28T11:43:22.846Z,61.33
2023-02-28T11:44:22.138Z,69.67
2023-02-28T11:46:23.498Z,169.33
2023-02-28T11:47:26.203Z,138.67
2023-02-28T11:48:36.743Z,148.00
2023-02-28T11:49:24.111Z,111.67
2023-02-28T11:50:25.019Z,91.00
2023-02-28T11:53:55.282Z,70.00
2023-02-28T11:55:09.776Z,65.33
2023-02-28T11:56:30.331Z,101.33
2023-02-28T11:58:26.744Z,92.67
2023-02-28T11:59:18.794Z,132.33
2023-02-28T12:00:27.909Z,115.00
2023-02-28T12:01:38.228Z,148.67
2023-02-28T12:02:48.470Z,72.33
2023-02-28T12:03:44.388Z,53.33
2023-02-28T12:04:37.283Z,49.67
2023-02-28T12:05:45.006Z,91.67
2023-02-28T12:07:48.776Z,199.67
2023-02-28T12:10:18.030Z,138.00
2023-02-28T12:10:57.148Z,89.67
2023-02-28T12:12:07.201Z,84.00
2023-02-28T12:13:41.273Z,62.33
2023-02-28T12:14:48.814Z,53.33
2023-02-28T12:16:37.638Z,78.33
2023-02-28T12:17:18.794Z,97.33
2023-02-28T12:18:16.465Z,91.67
2023-02-28T12:19:14.832Z,80.67
2023-02-28T12:20:19.650Z,168.33
2023-02-28T12:21:52.690Z,75.33
2023-02-28T12:22:54.522Z,57.33
2023-02-28T12:24:17.610Z,67.67
2023-02-28T12:25:37.572Z,56.33
2023-02-28T12:26:43.928Z,89.00
2023-02-28T12:28:17.384Z,73.00
2023-02-28T12:29:18.930Z,155.67
2023-02-28T12:30:23.884Z,136.67
2023-02-28T12:31:41.027Z,103.67
2023-02-28T12:32:41.260Z,103.00
2023-02-28T12:33:30.534Z,62.67
2023-02-28T12:34:12.196Z,54.33
2023-02-28T12:35:03.902Z,65.33
2023-02-28T12:35:56.944Z,72.00
2023-02-28T12:37:06.006Z,76.00
2023-02-28T12:38:00.995Z,131.00
2023-02-28T12:39:01.137Z,119.67
2023-02-28T12:39:50.934Z,162.67
2023-02-28T12:40:43.409Z,118.33
2023-02-28T12:42:01.178Z,149.00
2023-02-28T12:42:47.453Z,134.67
2023-02-28T12:43:36.314Z,126.33
2023-02-28T12:44:45.662Z,235.33
2023-02-28T12:45:38.976Z,157.33
2023-02-28T12:47:17.046Z,155.67
2023-02-28T12:48:04.051Z,153.33
2023-02-28T12:48:58.997Z,143.00
2023-02-28T12:51:15.170Z,218.00
2023-02-28T12:55:48.061Z,135.00
2023-02-28T12:57:02.174Z,169.33
2023-02-28T12:58:12.728Z,147.00
2023-02-28T12:59:20.312Z,171.67
2023-02-28T13:02:43.265Z,120.33
2023-02-28T13:04:48.333Z,73.33
2023-02-28T13:05:59.124Z,63.00
2023-02-28T13:07:34.633Z,73.00
2023-02-28T13:09:05.745Z,72.67
2023-02-28T13:12:11.954Z,78.33
2023-02-28T13:13:08.135Z,68.67
2023-02-28T13:14:34.247Z,75.67
2023-02-28T13:25:39.410Z,69.33
2023-02-28T13:26:43.053Z,44.67
2023-02-28T13:27:45.473Z,35.33
2023-02-28T13:28:54.260Z,32.00
2023-02-28T13:30:38.203Z,37.67
2023-02-28T13:31:22.038Z,38.33
2023-02-28T13:32:01.227Z,36.67
2023-02-28T13:33:08.621Z,35.67
2023-02-28T13:34:03.876Z,42.00
2023-02-28T13:35:07.986Z,45.33
2023-02-28T13:36:38.643Z,50.67
2023-02-28T13:37:46.586Z,51.67
2023-02-28T13:39:30.454Z,53.00
2023-02-28T13:40:28.296Z,49.33
2023-02-28T13:41:31.922Z,45.67
2023-02-28T13:42:13.617Z,42.33
2023-02-28T13:42:55.371Z,43.00
2023-02-28T13:44:24.788Z,44.33
2023-02-28T13:45:04.707Z,45.00
2023-02-28T13:46:13.238Z,46.67
2023-02-28T13:47:02.827Z,52.00
2023-02-28T13:47:55.644Z,52.00
2023-02-28T13:48:36.150Z,51.67
2023-02-28T13:50:44.018Z,44.33
2023-02-28T13:51:41.822Z,38.00
2023-02-28T13:52:31.719Z,38.33
2023-02-28T13:53:17.778Z,39.00
2023-02-28T13:53:58.116Z,38.33
2023-02-28T13:54:38.325Z,38.00
2023-02-28T13:55:28.455Z,38.00
2023-02-28T13:56:10.575Z,39.00
2023-02-28T13:57:07.993Z,39.33
2023-02-28T13:58:19.775Z,41.33
2023-02-28T13:59:19.635Z,51.00
2023-02-28T14:00:00.238Z,54.33
2023-02-28T14:00:40.187Z,53.33
2023-02-28T14:01:48.033Z,52.67
2023-02-28T14:03:53.717Z,47.00
2023-02-28T14:05:09.325Z,46.00
2023-02-28T14:05:50.589Z,47.67
2023-02-28T14:06:38.231Z,48.67
2023-02-28T14:08:24.198Z,53.00
2023-02-28T14:09:27.280Z,55.67
2023-02-28T14:10:34.347Z,55.00
2023-02-28T14:11:30.721Z,58.00
2023-02-28T14:12:49.193Z,61.00
2023-02-28T14:13:48.561Z,58.33
2023-02-28T14:14:37.332Z,57.00
2023-02-28T14:15:39.509Z,58.00
2023-02-28T14:16:24.824Z,57.00
2023-02-28T14:17:16.239Z,55.33
2023-02-28T14:18:00.089Z,53.33
2023-02-28T14:19:04.706Z,51.00
2023-02-28T14:20:16.012Z,49.00
2023-02-28T14:22:43.682Z,45.00
2023-02-28T14:24:42.344Z,47.67
2023-02-28T14:26:32.958Z,48.00
2023-02-28T14:28:41.905Z,45.33
2023-02-28T14:31:10.181Z,43.33
2023-02-28T14:32:07.290Z,44.00
2023-02-28T14:33:50.458Z,53.00
2023-02-28T14:34:54.780Z,54.00
2023-02-28T14:35:34.189Z,53.00
2023-02-28T14:36:40.398Z,54.00
2023-02-28T14:37:19.851Z,54.00
2023-02-28T14:38:14.935Z,54.00
2023-02-28T14:39:14.775Z,53.33
2023-02-28T14:39:57.469Z,56.00
2023-02-28T14:40:39.934Z,55.67
2023-02-28T14:42:04.253Z,56.33